Winchester, VA

8:14 PM EST on March 05, 2015 (GMT -0500)
Babbs Mtn Rd | Change Station
CLOSE
Current Station
Personal Weather Station
Location: Winchester, VA
Elevation: 950 ft
Nearby Weather Stations
Active Advisory: Wind Chill Advisory Active Notice: Public Information Statement

Elev 950 ft 39.27 °N, 78.18 °W | Updated 2 seconds ago

Overcast
Overcast
20.8 °F
Feels Like 21 °F
N
0.0
Wind Variable Wind from North
Gusts 0.0 mph

Today
High -- | Low -- °F
--% Chance of Precip.
Yesterday
High -- | Low -- °F
Precip. -- in
6:39 AM 6:09 PM
Full, 100% visible
Pressure 30.35 in
Visibility 10.0 miles
Clouds Scattered Clouds 6500 ft
Overcast 9000 ft
Windchill 21 °F
Dew Point 14 °F
Humidity 74%
Rainfall in
Snow Depth Not available.
UV 0 out of 12
Pollen .70 out of 12
Air Quality Not available.
Flu Activity Not available.
METAR KOKV 060055Z AUTO 34010KT 10SM SCT065 OVC090 M05/M11 A3035 RMK AO2

More Conditions Fewer Conditions

Pressure 30.35 in
Visibility 10.0 miles
Clouds Scattered Clouds 6500 ft
Overcast 9000 ft
Windchill 21 °F
Dew Point 14 °F
Humidity 74%
Rainfall in
Snow Depth Not available.
UV 0 out of 12
Pollen .70 out of 12
Air Quality Not available.
Flu Activity Not available.
METAR KOKV 060055Z AUTO 34010KT 10SM SCT065 OVC090 M05/M11 A3035 RMK AO2

More Conditions Fewer Conditions

10-Day Weather Forecast

Almanac

Astronomy

Mar. 05, 2015 Rise Set
Actual Time
Civil Twilight
Nautical Twilight
Astronomical Twilight
Moon
Length of Visible Light
Length of Day
Tomorrow will be .
, % of the Moon is Illuminated

Today's Extremes

State Highs State Lows

Community

WunderPhotos

Upload Photos

1,803,092 photos uploaded!

WunderBlogs® & News

Nearby

Air Quality

  Air Quality AQ Index Pollutant
Not available.

Snow Depth

Station Depth Elevation

Earthquake Activity

City Distance Mag. Time & Date
Minimum magnitude displayed is 2.5.

Coastal Water Temperatures

Place Temperature

Nearby Weather Stations

Wind Chill Advisory
Statement as of 7:47 PM EST on March 05, 2015

... Wind Chill Advisory remains in effect from midnight tonight to
10 am EST Friday...

* wind chill... as low as 12 below due to temperatures 1 below to
13 above zero... and winds northwest 5 to 10 mph.

* Winds... northwest 5 to 10 mph.

* Impacts... low wind chills may lead to frostbite and
hypothermia.

Precautionary/preparedness actions...

A Wind Chill Advisory means that very cold air and strong winds
will combine to generate low wind chills. This will result in
frost bite and lead to hypothermia if precautions are not taken.
If you must venture outdoors... make sure you wear a hat and
gloves.



Kcs